»·PEaware :: N851D KGEG-KHQM

N851D :: KGEG-KHQM

FLIGHT INFORMATION

Flight Status: Arrived
Operator: Privately registered:
United States
More flights under this callsign
Pilot: Jim P. (2486)
Aircraft: ROCKWELL MUSTANG
(P51)
More flights by this aircraft type
Origin: KGEG Spokane Intl
United States
Destination: KHQM Bowerman
United States
More flights between these airports :: More routes between these airports
Route: +GEG6 GEG EPAFY V120 EPH V336 ELN V187 OLM V204 SOUPY
File this flight plan on PilotEdge
Remarks:
Altitude:
(Current/Filed)
8,000ft
Speed:
(Current/Filed)
334kts
Departed: 21-Oct-20 12:27 PM
Arrived: 21-Oct-20 01:35 PM
Distance/Time
Traveled:
263nm/1:08
Distance/Time
To Go:
Arrived

Flight Plot

Page will automatically refresh every two minutes.

Flight plan parsing failed; only flown route is shown


Map Options




Map Legend


Flown Route
Filed Route
Departure Airport
Arrival Airport
Navaid (VOR, NDB)
Fix

Horizontal Profiles

Position Reports

Time Latitude Longitude Heading Altitude Ground
Speed
21-Oct-20 12:08 47.625936 -117.519149 350 2356ft 0kts
21-Oct-20 12:09 47.625939 -117.519149 351 2356ft 0kts
21-Oct-20 12:10 47.625942 -117.519150 352 2356ft 0kts
21-Oct-20 12:11 47.625945 -117.519150 354 2356ft 0kts
21-Oct-20 12:12 47.625948 -117.519150 355 2356ft 0kts
21-Oct-20 12:13 47.625951 -117.519151 356 2356ft 0kts
21-Oct-20 12:13 47.625953 -117.519151 358 2356ft 0kts
21-Oct-20 12:15 47.625956 -117.519151 359 2356ft 0kts
21-Oct-20 12:15 47.625958 -117.519151 0 2356ft 0kts
21-Oct-20 12:17 47.625961 -117.519150 2 2356ft 0kts
21-Oct-20 12:17 47.625963 -117.519150 3 2356ft 0kts
21-Oct-20 12:18 47.625966 -117.519150 5 2356ft 0kts
21-Oct-20 12:20 47.625969 -117.519149 6 2356ft 0kts
21-Oct-20 12:20 47.626084 -117.519138 351 2356ft 1kts
21-Oct-20 12:21 47.627712 -117.519780 335 2356ft 4kts
21-Oct-20 12:22 47.629547 -117.517302 47 2356ft 15kts
21-Oct-20 12:23 47.630714 -117.517492 309 2356ft 0kts
21-Oct-20 12:24 47.630718 -117.517497 312 2356ft 0kts
21-Oct-20 12:25 47.630954 -117.518694 231 2356ft 5kts
21-Oct-20 12:26 47.623241 -117.530067 225 2359ft 125kts
21-Oct-20 12:27 47.594621 -117.576364 233 3530ft 181kts
21-Oct-20 12:28 47.563684 -117.644717 236 4630ft 223kts
21-Oct-20 12:29 47.519135 -117.711318 226 6019ft 224kts
21-Oct-20 12:30 47.490789 -117.785112 277 7532ft 215kts
21-Oct-20 12:31 47.502395 -117.872170 282 9032ft 216kts
21-Oct-20 12:32 47.514015 -117.960769 274 10516ft 224kts
21-Oct-20 12:33 47.513459 -118.055032 269 11876ft 237kts
21-Oct-20 12:34 47.511281 -118.157871 266 12289ft 272kts
21-Oct-20 12:35 47.503668 -118.276020 267 12018ft 293kts
21-Oct-20 12:36 47.492661 -118.395768 262 12029ft 293kts
21-Oct-20 12:37 47.478813 -118.513353 265 12031ft 287kts
21-Oct-20 12:38 47.463587 -118.628423 250 11988ft 288kts
21-Oct-20 12:39 47.438171 -118.739676 262 11978ft 283kts
21-Oct-20 12:40 47.427725 -118.854185 266 11986ft 280kts
21-Oct-20 12:41 47.417921 -118.968457 265 11992ft 279kts
21-Oct-20 12:42 47.407850 -119.081878 266 11993ft 278kts
21-Oct-20 12:43 47.397896 -119.195160 266 11995ft 277kts
21-Oct-20 12:44 47.387959 -119.308909 266 11995ft 279kts
21-Oct-20 12:45 47.370182 -119.419591 246 12002ft 284kts
21-Oct-20 12:46 47.341077 -119.527918 262 11983ft 281kts
21-Oct-20 12:47 47.306281 -119.632070 249 11984ft 283kts
21-Oct-20 12:48 47.271855 -119.736078 248 11991ft 282kts
21-Oct-20 12:49 47.236653 -119.838808 248 11995ft 281kts
21-Oct-20 12:50 47.201099 -119.942801 248 12009ft 284kts
21-Oct-20 12:51 47.165256 -120.047681 248 12002ft 285kts
21-Oct-20 12:52 47.125850 -120.147768 241 12010ft 284kts
21-Oct-20 12:53 47.090980 -120.249266 250 12009ft 278kts
21-Oct-20 12:54 47.058166 -120.351977 250 12011ft 277kts
21-Oct-20 12:55 47.025685 -120.454204 250 12012ft 276kts
21-Oct-20 12:56 46.998867 -120.557341 267 12021ft 268kts
21-Oct-20 12:57 47.015551 -120.661382 294 12019ft 263kts
21-Oct-20 12:58 47.047833 -120.757719 296 12013ft 264kts
21-Oct-20 12:59 47.081071 -120.853848 297 12014ft 264kts
21-Oct-20 13:00 47.106541 -120.953194 266 12035ft 268kts
21-Oct-20 13:01 47.080549 -121.057762 246 12023ft 278kts
21-Oct-20 13:02 47.052453 -121.160424 269 12028ft 268kts
21-Oct-20 13:03 47.056247 -121.268901 277 12022ft 266kts
21-Oct-20 13:04 47.061438 -121.377234 276 12033ft 266kts
21-Oct-20 13:05 47.065725 -121.484835 276 12039ft 266kts
21-Oct-20 13:06 47.070098 -121.594176 276 12048ft 266kts
21-Oct-20 13:07 47.072155 -121.702694 264 12072ft 269kts
21-Oct-20 13:08 47.058718 -121.811281 267 12083ft 269kts
21-Oct-20 13:09 47.055059 -121.920111 271 12099ft 266kts
21-Oct-20 13:10 47.047287 -122.027587 263 12116ft 269kts
21-Oct-20 13:11 47.032914 -122.135151 266 11841ft 268kts
21-Oct-20 13:12 47.028438 -122.245929 270 10868ft 277kts
21-Oct-20 13:13 47.017047 -122.358912 261 9855ft 283kts
21-Oct-20 13:14 47.007753 -122.465986 270 8914ft 248kts
21-Oct-20 13:15 47.000431 -122.563293 262 8116ft 235kts
21-Oct-20 13:16 46.992375 -122.656453 269 7322ft 228kts
21-Oct-20 13:17 46.983918 -122.748080 265 6534ft 225kts
21-Oct-20 13:18 46.976501 -122.839043 265 6003ft 229kts
21-Oct-20 13:19 46.971600 -122.935168 272 5679ft 245kts
21-Oct-20 13:20 46.972726 -123.037957 272 4745ft 256kts
21-Oct-20 13:21 46.974506 -123.142084 272 3953ft 250kts
21-Oct-20 13:22 46.991591 -123.237511 280 3972ft 238kts
21-Oct-20 13:23 46.996139 -123.330677 276 3963ft 223kts
21-Oct-20 13:24 47.005624 -123.418565 297 3980ft 216kts
21-Oct-20 13:25 47.028920 -123.491585 272 2925ft 200kts
21-Oct-20 13:26 47.016036 -123.566334 256 1926ft 176kts
21-Oct-20 13:27 47.007610 -123.630443 260 1271ft 155kts
21-Oct-20 13:28 46.997552 -123.688382 272 2039ft 146kts
21-Oct-20 13:29 46.994643 -123.743660 270 2309ft 139kts
21-Oct-20 13:30 46.987792 -123.795679 262 1957ft 130kts
21-Oct-20 13:31 46.980272 -123.846740 265 1130ft 119kts
21-Oct-20 13:32 46.975864 -123.893096 265 434ft 118kts
21-Oct-20 13:33 46.971911 -123.931373 273 20ft 42kts
21-Oct-20 13:34 46.971502 -123.939928 345 20ft 5kts
21-Oct-20 13:35 46.972135 -123.936615 85 20ft 11kts
21-Oct-20 13:36 46.972778 -123.931756 87 20ft 8kts
21-Oct-20 13:37 46.973432 -123.930176 165 20ft 0kts
21-Oct-20 13:38 46.973431 -123.930176 165 20ft 0kts

Navigation Log

Ident Type
Flight plan parsing failed, navigation log unavailable